»·PEaware :: N921VN E25-KFLG

N921VN :: E25-KFLG

FLIGHT INFORMATION

Flight Status: Arrived
Operator: Privately registered:
United States
More flights under this callsign
Pilot: Kevin M. (7)
Aircraft: CESSNA 172 SKYHAWK
(C172)
More flights by this aircraft type
Origin: E25 Wickenburg Mun
United States
Destination: KFLG Flagstaff Pulliam
United States
More flights between these airports :: More routes between these airports
Route:
File this flight plan on PilotEdge
Remarks: Alphabet Challenge!
Altitude:
(Current/Filed)
9,500ft
Speed:
(Current/Filed)
140kts
Departed: 29-Sep-20 03:17 PM
Arrived: 29-Sep-20 04:15 PM
Distance/Time
Traveled:
89nm/0:58
Distance/Time
To Go:
Arrived

Flight Plot

Page will automatically refresh every two minutes.

Flight plan parsing failed; only flown route is shown


Map Options




Map Legend


Flown Route
Filed Route
Departure Airport
Arrival Airport
Navaid (VOR, NDB)
Fix

Horizontal Profiles

Position Reports

Time Latitude Longitude Heading Altitude Ground
Speed
29-Sep-20 15:13 33.965533 -112.803895 327 2381ft 0kts
29-Sep-20 15:14 33.965533 -112.803895 327 2381ft 0kts
29-Sep-20 15:15 33.965555 -112.803913 328 2381ft 0kts
29-Sep-20 15:16 33.965610 -112.803916 0 2381ft 5kts
29-Sep-20 15:17 33.967941 -112.800810 59 2367ft 55kts
29-Sep-20 15:18 33.983617 -112.786674 19 2830ft 72kts
29-Sep-20 15:19 34.002227 -112.777211 22 3351ft 76kts
29-Sep-20 15:19 34.012898 -112.760105 37 3758ft 81kts
29-Sep-20 15:21 34.036893 -112.764445 25 4345ft 80kts
29-Sep-20 15:22 34.061964 -112.752811 45 4555ft 108kts
29-Sep-20 15:22 34.075087 -112.727242 57 4727ft 106kts
29-Sep-20 15:24 34.093005 -112.691205 57 4965ft 107kts
29-Sep-20 15:24 34.105788 -112.665466 57 5129ft 107kts
29-Sep-20 15:25 34.121187 -112.634548 57 5331ft 107kts
29-Sep-20 15:26 34.136496 -112.603789 57 5525ft 106kts
29-Sep-20 15:27 34.151686 -112.573112 57 5721ft 105kts
29-Sep-20 15:28 34.166992 -112.542413 57 5958ft 109kts
29-Sep-20 15:29 34.182488 -112.511212 57 6141ft 108kts
29-Sep-20 15:30 34.197929 -112.480243 57 6342ft 107kts
29-Sep-20 15:31 34.213355 -112.449356 57 6538ft 107kts
29-Sep-20 15:32 34.228467 -112.418956 65 6832ft 93kts
29-Sep-20 15:33 34.240847 -112.391483 54 7068ft 102kts
29-Sep-20 15:34 34.257938 -112.362681 53 7227ft 109kts
29-Sep-20 15:35 34.276267 -112.331809 53 7237ft 114kts
29-Sep-20 15:36 34.294722 -112.300747 53 7245ft 113kts
29-Sep-20 15:37 34.313132 -112.269737 53 7250ft 114kts
29-Sep-20 15:38 34.331574 -112.238689 53 7251ft 112kts
29-Sep-20 15:39 34.349790 -112.208032 54 7263ft 112kts
29-Sep-20 15:40 34.368013 -112.177337 53 7269ft 112kts
29-Sep-20 15:41 34.385684 -112.147568 53 7274ft 111kts
29-Sep-20 15:42 34.403851 -112.116977 54 7280ft 111kts
29-Sep-20 15:43 34.421998 -112.086407 54 7288ft 112kts
29-Sep-20 15:44 34.440226 -112.055732 54 7292ft 111kts
29-Sep-20 15:45 34.458378 -112.025143 54 7295ft 111kts
29-Sep-20 15:46 34.476474 -111.994674 54 7304ft 112kts
29-Sep-20 15:47 34.494638 -111.964069 54 7312ft 112kts
29-Sep-20 15:48 34.512882 -111.933329 54 7317ft 112kts
29-Sep-20 15:49 34.531249 -111.902401 54 7324ft 114kts
29-Sep-20 15:50 34.549860 -111.871053 54 7326ft 113kts
29-Sep-20 15:51 34.568239 -111.840116 54 7331ft 112kts
29-Sep-20 15:52 34.591171 -111.817688 13 7341ft 113kts
29-Sep-20 15:53 34.622132 -111.809605 13 7348ft 114kts
29-Sep-20 15:54 34.653261 -111.801589 13 7351ft 114kts
29-Sep-20 15:55 34.684279 -111.793619 13 7356ft 114kts
29-Sep-20 15:56 34.715520 -111.785590 13 7365ft 114kts
29-Sep-20 15:57 34.746777 -111.777576 13 7371ft 115kts
29-Sep-20 15:58 34.778276 -111.769468 13 7373ft 115kts
29-Sep-20 15:59 34.809562 -111.761420 13 7380ft 115kts
29-Sep-20 16:00 34.840779 -111.753386 13 7391ft 115kts
29-Sep-20 16:01 34.872197 -111.745291 13 7383ft 114kts
29-Sep-20 16:02 34.903373 -111.737252 12 7389ft 114kts
29-Sep-20 16:03 34.934958 -111.729095 12 7386ft 115kts
29-Sep-20 16:04 34.965925 -111.722397 4 7494ft 110kts
29-Sep-20 16:05 34.993524 -111.720468 7 7999ft 90kts
29-Sep-20 16:06 35.019322 -111.717936 6 8400ft 91kts
29-Sep-20 16:07 35.045782 -111.717308 359 8742ft 95kts
29-Sep-20 16:08 35.071151 -111.715773 12 9073ft 100kts
29-Sep-20 16:09 35.093933 -111.697885 33 9352ft 102kts
29-Sep-20 16:10 35.118789 -111.676241 49 9057ft 130kts
29-Sep-20 16:11 35.142269 -111.641121 54 8053ft 132kts
29-Sep-20 16:12 35.161958 -111.643363 250 7845ft 113kts
29-Sep-20 16:13 35.142626 -111.666785 221 7009ft 66kts
29-Sep-20 16:14 35.139337 -111.671644 315 7006ft 0kts
29-Sep-20 16:15 35.137553 -111.674386 258 7010ft 0kts
29-Sep-20 16:16 35.137662 -111.674741 133 7010ft 0kts
29-Sep-20 16:17 35.137662 -111.674741 133 7010ft 0kts

Navigation Log

Ident Type
Flight plan parsing failed, navigation log unavailable